createdAt,value
2023-05-12T03:02:23.196Z,101019.18
2023-05-12T03:04:53.667Z,101020.14
2023-05-12T03:07:22.874Z,101018.36
2023-05-12T03:09:52.034Z,101023.11
2023-05-12T03:12:21.141Z,101017.63
2023-05-12T03:14:50.226Z,101015.91
2023-05-12T03:17:18.889Z,101020.28
2023-05-12T03:19:47.711Z,101017.50
2023-05-12T03:22:18.335Z,101019.89
2023-05-12T03:24:47.892Z,101018.33
2023-05-12T03:27:17.034Z,101018.92
2023-05-12T03:29:46.493Z,101015.18
2023-05-12T03:32:14.798Z,101015.73
2023-05-12T03:34:44.035Z,101015.94
2023-05-12T03:37:13.639Z,101014.92
2023-05-12T03:39:42.628Z,101023.32
2023-05-12T03:42:12.634Z,101023.39
2023-05-12T03:44:43.329Z,101021.30
2023-05-12T03:47:14.394Z,101024.35
2023-05-12T03:49:43.765Z,101028.65
2023-05-12T03:52:13.474Z,101032.39
2023-05-12T03:54:41.713Z,101033.02
2023-05-12T03:57:10.877Z,101035.68
2023-05-12T03:59:39.616Z,101037.04
2023-05-12T04:02:12.619Z,101042.89
2023-05-12T04:04:41.998Z,101044.17
2023-05-12T04:07:11.046Z,101044.25
2023-05-12T04:09:40.092Z,101045.92
2023-05-12T04:12:08.981Z,101047.41
2023-05-12T04:14:42.749Z,101048.59
2023-05-12T04:17:13.025Z,101043.31
2023-05-12T04:19:42.344Z,101044.61
2023-05-12T04:22:11.107Z,101042.55
2023-05-12T04:24:39.626Z,101040.67
2023-05-12T04:27:09.075Z,101038.87
2023-05-12T04:29:38.016Z,101039.87
2023-05-12T04:32:08.058Z,101042.10
2023-05-12T04:34:36.708Z,101039.30
2023-05-12T04:37:05.684Z,101040.05
2023-05-12T04:39:34.489Z,101044.02
2023-05-12T04:42:05.094Z,101041.32
2023-05-12T04:44:35.236Z,101040.86
2023-05-12T04:47:04.484Z,101038.39
2023-05-12T04:49:33.474Z,101038.46
2023-05-12T04:52:02.328Z,101041.97
2023-05-12T04:54:31.592Z,101040.44
2023-05-12T04:57:00.722Z,101043.98
2023-05-12T04:59:30.306Z,101042.42
2023-05-12T05:01:58.981Z,101041.70
2023-05-12T05:04:27.337Z,101040.19
2023-05-12T05:06:56.870Z,101044.11
2023-05-12T05:09:26.415Z,101044.00
2023-05-12T05:11:55.594Z,101046.07
2023-05-12T05:14:23.851Z,101046.25
2023-05-12T05:16:52.672Z,101048.02
2023-05-12T05:19:30.175Z,101047.39
2023-05-12T05:22:14.609Z,101048.91
2023-05-12T05:24:42.924Z,101045.09
2023-05-12T05:27:12.779Z,101047.58
2023-05-12T05:29:41.596Z,101047.16
2023-05-12T05:32:10.840Z,101049.04
2023-05-12T05:34:41.237Z,101048.02
2023-05-12T05:37:10.981Z,101048.34
2023-05-12T05:39:40.113Z,101048.92
2023-05-12T05:42:09.367Z,101050.30
2023-05-12T05:44:38.495Z,101047.77
2023-05-12T05:47:08.045Z,101047.16
2023-05-12T05:49:37.352Z,101050.92
2023-05-12T05:52:07.341Z,101049.77
2023-05-12T05:54:36.692Z,101050.87
2023-05-12T05:57:06.576Z,101051.43
2023-05-12T05:59:35.748Z,101049.54
2023-05-12T06:02:07.910Z,101052.45
2023-05-12T06:04:37.091Z,101052.63
2023-05-12T06:07:06.376Z,101054.71
2023-05-12T06:09:35.378Z,101061.86
2023-05-12T06:12:03.949Z,101059.73
2023-05-12T06:14:32.326Z,101063.09
2023-05-12T06:17:00.955Z,101063.98
2023-05-12T06:19:29.247Z,101067.59
2023-05-12T06:21:58.615Z,101071.20
2023-05-12T06:24:27.417Z,101073.39
2023-05-12T06:26:57.256Z,101074.38
2023-05-12T06:29:25.826Z,101074.41
2023-05-12T06:31:54.507Z,101080.51
2023-05-12T06:34:22.946Z,101076.33
2023-05-12T06:36:53.194Z,101077.98
2023-05-12T06:39:24.241Z,101080.84
2023-05-12T06:41:52.815Z,101081.20
2023-05-12T06:44:23.044Z,101085.95
2023-05-12T06:46:54.562Z,101085.23
2023-05-12T06:49:23.387Z,101091.18
2023-05-12T06:51:52.461Z,101091.34
2023-05-12T06:54:21.276Z,101092.14
2023-05-12T06:56:50.077Z,101090.76
2023-05-12T06:59:20.760Z,101090.51
2023-05-12T07:01:50.066Z,101092.59
2023-05-12T07:04:19.295Z,101090.55
2023-05-12T07:06:48.383Z,101096.27
2023-05-12T07:09:19.507Z,101090.61
2023-05-12T07:11:47.962Z,101086.48
2023-05-12T07:14:17.107Z,101089.33
2023-05-12T07:16:46.010Z,101091.13
2023-05-12T07:19:14.177Z,101090.33
2023-05-12T07:21:43.132Z,101088.62
2023-05-12T07:24:11.527Z,101090.39
2023-05-12T07:26:40.769Z,101091.06
2023-05-12T07:29:13.753Z,101093.98
2023-05-12T07:31:43.047Z,101091.90
2023-05-12T07:34:11.670Z,101095.74
2023-05-12T07:36:40.138Z,101093.77
2023-05-12T07:39:08.447Z,101096.45
2023-05-12T07:41:36.923Z,101103.90
2023-05-12T07:44:05.974Z,101103.80
2023-05-12T07:46:34.286Z,101101.64
2023-05-12T07:49:03.293Z,101101.73
2023-05-12T07:51:31.879Z,101103.64
2023-05-12T07:54:01.499Z,101106.23
2023-05-12T07:56:30.359Z,101104.32
2023-05-12T07:58:59.080Z,101105.20
2023-05-12T08:01:27.939Z,101102.09
2023-05-12T08:03:57.265Z,101107.23
2023-05-12T08:06:26.201Z,101102.11
2023-05-12T08:08:56.289Z,101095.95
2023-05-12T08:11:25.664Z,101103.69
2023-05-12T08:13:54.849Z,101100.93
2023-05-12T08:16:26.617Z,101104.45
2023-05-12T08:18:56.114Z,101096.70
2023-05-12T08:21:25.274Z,101093.83
2023-05-12T08:23:54.288Z,101100.41
2023-05-12T08:26:23.259Z,101098.70
2023-05-12T08:28:52.395Z,101099.84
2023-05-12T08:31:21.103Z,101106.11
2023-05-12T08:33:54.098Z,101099.56
2023-05-12T08:36:32.133Z,101097.30
2023-05-12T08:39:01.284Z,101099.06
2023-05-12T08:41:49.370Z,101101.75
2023-05-12T08:44:19.629Z,101093.21
2023-05-12T08:46:49.289Z,101089.37
2023-05-12T08:49:21.684Z,101090.04
2023-05-12T08:51:58.235Z,101095.90
2023-05-12T08:54:29.208Z,101104.32
2023-05-12T08:59:30.117Z,101102.52
2023-05-12T09:01:59.457Z,101100.17
2023-05-12T09:04:28.606Z,101091.80
2023-05-12T09:06:58.587Z,101085.67
2023-05-12T09:09:28.883Z,101094.41
2023-05-12T09:11:58.356Z,101096.48
2023-05-12T09:14:28.506Z,101101.37
2023-05-12T09:17:04.683Z,101094.88
2023-05-12T09:19:35.029Z,101091.89
2023-05-12T09:22:03.739Z,101082.42
2023-05-12T09:24:39.039Z,101084.36
2023-05-12T09:27:07.958Z,101085.16
2023-05-12T09:29:45.180Z,101091.08
2023-05-12T09:32:34.155Z,101078.39
2023-05-12T09:35:06.716Z,101085.52
2023-05-12T09:37:36.176Z,101086.34
2023-05-12T09:40:06.008Z,101088.60
2023-05-12T09:42:35.172Z,101086.06
2023-05-12T09:45:07.624Z,101081.73
2023-05-12T09:47:37.105Z,101066.42
2023-05-12T09:50:07.511Z,101077.00
2023-05-12T09:52:37.498Z,101071.63
2023-05-12T09:55:10.743Z,101079.06
2023-05-12T09:57:43.364Z,101077.81
2023-05-12T10:00:33.147Z,101078.58
2023-05-12T10:03:10.620Z,101073.42
2023-05-12T10:05:44.451Z,101080.51
2023-05-12T10:08:16.639Z,101077.34
2023-05-12T10:10:48.940Z,101075.48
2023-05-12T10:13:18.384Z,101084.15
2023-05-12T10:15:48.712Z,101075.41
2023-05-12T10:18:17.668Z,101067.75
2023-05-12T10:20:46.562Z,101068.29
2023-05-12T10:23:15.980Z,101057.28
2023-05-12T10:25:44.786Z,101064.07
2023-05-12T10:28:17.040Z,101064.98
2023-05-12T10:30:45.806Z,101061.52
2023-05-12T10:33:16.125Z,101074.02
2023-05-12T10:35:46.217Z,101071.20
2023-05-12T10:38:20.082Z,101056.02
2023-05-12T10:40:51.799Z,101057.64
2023-05-12T10:43:24.437Z,101063.01
2023-05-12T10:46:11.831Z,101057.36
2023-05-12T10:48:55.363Z,101058.52
2023-05-12T10:51:31.404Z,101052.89
2023-05-12T10:54:01.934Z,101051.92
2023-05-12T10:56:32.121Z,101056.47
2023-05-12T10:59:20.467Z,101058.50
2023-05-12T11:01:58.858Z,101059.31
2023-05-12T11:04:43.521Z,101055.52
2023-05-12T11:07:16.228Z,101054.23
2023-05-12T11:09:57.435Z,101049.63
2023-05-12T11:12:28.755Z,101048.17
2023-05-12T11:14:59.850Z,101049.30
2023-05-12T11:17:28.683Z,101041.40
2023-05-12T11:19:59.490Z,101036.08
2023-05-12T11:22:28.852Z,101034.98
2023-05-12T11:24:58.236Z,101032.06
2023-05-12T11:27:27.384Z,101038.91
2023-05-12T11:29:56.698Z,101046.45
2023-05-12T11:32:25.835Z,101047.61
2023-05-12T11:34:54.922Z,101044.27
2023-05-12T11:37:23.401Z,101041.93
2023-05-12T11:39:53.488Z,101038.61
2023-05-12T11:42:25.064Z,101035.11
2023-05-12T11:44:56.018Z,101030.93
2023-05-12T11:47:26.317Z,101035.61
2023-05-12T11:49:56.029Z,101025.61
2023-05-12T11:52:25.818Z,101032.20
2023-05-12T11:54:58.538Z,101038.58
2023-05-12T11:57:30.879Z,101048.77
2023-05-12T12:00:02.239Z,101038.55
2023-05-12T12:02:36.146Z,101033.76
2023-05-12T12:05:08.539Z,101035.91
2023-05-12T12:07:39.007Z,101033.55
2023-05-12T12:10:16.290Z,101031.71
2023-05-12T12:12:49.605Z,101026.83
2023-05-12T12:15:18.554Z,101032.33
2023-05-12T12:17:46.809Z,101017.11
2023-05-12T12:20:15.352Z,101026.10
2023-05-12T12:22:44.114Z,101017.77
2023-05-12T12:25:12.980Z,101024.69
2023-05-12T12:27:44.909Z,101009.04
2023-05-12T12:30:14.566Z,101009.45
2023-05-12T12:32:44.866Z,101017.69
2023-05-12T12:35:14.332Z,101022.88
2023-05-12T12:37:43.512Z,101024.27
2023-05-12T12:40:12.566Z,101018.02
2023-05-12T12:42:42.058Z,101015.98
2023-05-12T12:45:10.963Z,101021.34
2023-05-12T12:47:40.029Z,101015.56
2023-05-12T12:50:10.654Z,101008.76
2023-05-12T12:52:39.720Z,101017.86
2023-05-12T12:55:09.365Z,101013.43
2023-05-12T12:57:38.318Z,101010.34
2023-05-12T13:00:09.161Z,101021.02
2023-05-12T13:02:39.446Z,101014.21
2023-05-12T13:35:05.317Z,100998.48
2023-05-12T13:37:34.181Z,100999.40
2023-05-12T13:40:03.046Z,100996.08
2023-05-12T13:42:31.439Z,100984.36
2023-05-12T13:45:00.869Z,100990.54
2023-05-12T13:47:29.582Z,100987.39
2023-05-12T13:49:58.657Z,100986.01
2023-05-12T13:52:28.201Z,100982.98
2023-05-12T13:54:57.785Z,100982.79
2023-05-12T13:57:26.711Z,100975.64
2023-05-12T13:59:58.552Z,100978.29
2023-05-12T14:02:27.546Z,100977.52
2023-05-12T14:04:56.907Z,100974.33
2023-05-12T14:07:26.359Z,100971.52
2023-05-12T14:09:55.273Z,100971.77
2023-05-12T14:12:24.099Z,100988.33
2023-05-12T14:14:53.032Z,100986.16
2023-05-12T14:17:21.763Z,100985.86
2023-05-12T14:19:50.669Z,100984.01
2023-05-12T14:22:26.434Z,100982.78
2023-05-12T14:24:56.530Z,100979.15
2023-05-12T14:27:25.436Z,100980.92
2023-05-12T14:29:53.648Z,100986.60
2023-05-12T14:32:22.257Z,100978.56
2023-05-12T14:34:50.915Z,100978.86
2023-05-12T14:37:19.519Z,100974.42
2023-05-12T14:39:48.244Z,100967.77
2023-05-12T14:42:18.550Z,100965.02
2023-05-12T14:44:46.447Z,100967.52
2023-05-12T14:47:15.388Z,100974.89
2023-05-12T14:49:49.080Z,100983.41
2023-05-12T14:52:18.797Z,100984.81
2023-05-12T14:54:47.590Z,100976.69
2023-05-12T14:57:16.124Z,100973.78
2023-05-12T14:59:44.182Z,100970.00
2023-05-12T15:02:12.230Z,100973.21
2023-05-12T15:04:40.984Z,100969.90
2023-05-12T15:07:09.592Z,100971.96
2023-05-12T15:09:37.787Z,100969.09
2023-05-12T15:12:06.294Z,100973.60
2023-05-12T15:14:35.095Z,100975.80
2023-05-12T15:17:03.804Z,100980.02
2023-05-12T15:19:32.595Z,100981.01
2023-05-12T15:22:00.949Z,100975.65
2023-05-12T15:24:29.730Z,100976.27
2023-05-12T15:26:58.542Z,100979.35
2023-05-12T15:29:27.136Z,100982.55
2023-05-12T15:31:55.761Z,100979.41
2023-05-12T15:34:24.809Z,100978.88
2023-05-12T15:36:53.411Z,100982.00
2023-05-12T15:39:23.516Z,100978.71
2023-05-12T15:41:52.309Z,100973.60
2023-05-12T15:44:21.364Z,100974.82
2023-05-12T15:46:50.240Z,100972.64
2023-05-12T15:49:19.259Z,100977.81
2023-05-12T15:51:51.411Z,100975.73
2023-05-12T15:54:20.468Z,100971.85
2023-05-12T15:56:52.600Z,100969.33
2023-05-12T15:59:21.467Z,100971.30
2023-05-12T16:01:50.309Z,100967.95
2023-05-12T16:04:19.581Z,100964.29
2023-05-12T16:06:48.643Z,100965.04
2023-05-12T16:09:17.792Z,100970.10
2023-05-12T16:11:46.630Z,100967.02
2023-05-12T16:14:15.847Z,100970.13
2023-05-12T16:16:48.921Z,100965.90
2023-05-12T16:19:18.704Z,100972.60
2023-05-12T16:21:47.747Z,100971.94
2023-05-12T16:24:16.611Z,100975.14
2023-05-12T16:26:44.686Z,100968.34
2023-05-12T16:29:14.214Z,100972.37
2023-05-12T16:31:43.123Z,100974.55
2023-05-12T16:34:12.315Z,100977.48
2023-05-12T16:36:41.319Z,100980.29
2023-05-12T16:39:10.108Z,100974.23
2023-05-12T16:41:39.593Z,100978.84
2023-05-12T16:44:10.919Z,100975.91
2023-05-12T16:46:41.677Z,100973.70
2023-05-12T16:49:10.536Z,100977.10
2023-05-12T16:51:39.421Z,100975.52
2023-05-12T16:54:08.360Z,100975.66
2023-05-12T16:56:37.203Z,100979.48
2023-05-12T16:59:06.853Z,100976.98
2023-05-12T17:01:36.825Z,100979.33
2023-05-12T17:04:05.756Z,100981.00
2023-05-12T17:06:34.558Z,100984.62
2023-05-12T17:09:03.202Z,100986.19
2023-05-12T17:11:32.183Z,100986.42
2023-05-12T17:14:01.567Z,100986.70
2023-05-12T17:16:30.581Z,100991.42
2023-05-12T17:21:31.799Z,100997.30
2023-05-12T17:24:01.437Z,100996.94
2023-05-12T17:26:29.660Z,100996.80
2023-05-12T17:28:58.324Z,101000.15
2023-05-12T17:31:27.043Z,101001.61
2023-05-12T17:33:55.728Z,101001.63
2023-05-12T17:36:24.494Z,101002.84
2023-05-12T17:38:52.692Z,101004.86
2023-05-12T17:41:21.195Z,101003.15
2023-05-12T17:43:49.542Z,101002.56
2023-05-12T17:46:17.866Z,101001.81
2023-05-12T17:48:45.955Z,101006.92
2023-05-12T17:51:14.332Z,101003.19
2023-05-12T17:53:42.532Z,101004.47
2023-05-12T17:56:11.633Z,101005.52
2023-05-12T17:58:40.496Z,101004.72
2023-05-12T18:01:08.807Z,101002.79
2023-05-12T18:03:38.603Z,101007.13
2023-05-12T18:06:08.990Z,101008.45
2023-05-12T18:08:37.954Z,101009.02
2023-05-12T18:11:06.757Z,101010.80
2023-05-12T18:13:35.557Z,101012.38
2023-05-12T18:16:03.924Z,101014.45
2023-05-12T18:18:33.423Z,101015.38
2023-05-12T18:21:02.290Z,101016.31
2023-05-12T18:23:31.329Z,101018.75
2023-05-12T18:26:02.321Z,101024.41
2023-05-12T18:28:33.226Z,101027.08
2023-05-12T18:31:09.305Z,101030.57
2023-05-12T18:33:46.676Z,101028.27
2023-05-12T18:36:16.251Z,101035.14
2023-05-12T18:38:45.074Z,101038.00
2023-05-12T18:41:13.162Z,101035.23
2023-05-12T18:43:43.403Z,101036.19
2023-05-12T18:46:12.864Z,101041.15
2023-05-12T18:48:42.584Z,101043.95
2023-05-12T18:51:12.110Z,101047.89
2023-05-12T18:53:40.401Z,101049.32
2023-05-12T18:56:08.558Z,101053.48
2023-05-12T18:58:39.288Z,101055.70
2023-05-12T19:01:07.437Z,101058.60
2023-05-12T19:03:35.734Z,101058.86
2023-05-12T19:06:03.826Z,101064.39
2023-05-12T19:08:32.048Z,101067.74
2023-05-12T19:11:00.709Z,101069.42
2023-05-12T19:13:32.027Z,101072.09
2023-05-12T19:16:00.151Z,101077.14
2023-05-12T19:18:28.795Z,101078.43
2023-05-12T19:20:57.696Z,101083.29
2023-05-12T19:23:26.237Z,101082.63
2023-05-12T19:25:56.153Z,101079.46
2023-05-12T19:28:25.553Z,101083.35
2023-05-12T19:30:55.226Z,101083.76
2023-05-12T19:33:23.681Z,101084.50
2023-05-12T19:35:52.847Z,101084.26
2023-05-12T19:38:21.233Z,101085.91
2023-05-12T19:40:49.455Z,101090.73
2023-05-12T19:43:17.738Z,101094.20
2023-05-12T19:45:46.139Z,101093.55
2023-05-12T19:48:15.390Z,101095.66
2023-05-12T19:50:43.866Z,101092.70
2023-05-12T19:53:12.202Z,101095.59
2023-05-12T19:55:40.516Z,101097.86
2023-05-12T19:58:09.369Z,101094.30
2023-05-12T20:00:39.435Z,101093.05
2023-05-12T20:03:08.453Z,101094.05
2023-05-12T20:05:37.878Z,101098.24
2023-05-12T20:08:06.140Z,101099.00
2023-05-12T20:10:34.769Z,101101.62
2023-05-12T20:13:09.252Z,101102.60
2023-05-12T20:15:43.594Z,101099.77
2023-05-12T20:18:15.991Z,101104.96
2023-05-12T20:20:45.754Z,101106.20
2023-05-12T20:23:16.675Z,101100.05
2023-05-12T20:25:45.721Z,101098.09
2023-05-12T20:28:15.886Z,101094.33
2023-05-12T20:30:45.133Z,101095.52
2023-05-12T20:33:13.874Z,101096.20
2023-05-12T20:35:42.853Z,101098.32
2023-05-12T20:38:11.270Z,101095.67
2023-05-12T20:40:41.271Z,101095.53
2023-05-12T20:43:12.068Z,101097.44
2023-05-12T20:45:43.253Z,101100.50
2023-05-12T20:48:11.979Z,101098.89
2023-05-12T20:50:41.804Z,101102.21
2023-05-12T20:53:15.629Z,101104.34
2023-05-12T20:55:46.011Z,101106.16
2023-05-12T20:58:14.943Z,101110.40
2023-05-12T21:00:43.464Z,101109.91
2023-05-12T21:03:17.346Z,101112.98
2023-05-12T21:05:49.661Z,101114.84
2023-05-12T21:08:18.205Z,101114.08
2023-05-12T21:10:46.391Z,101117.16
2023-05-12T21:13:14.792Z,101118.95
2023-05-12T21:15:43.116Z,101120.60
2023-05-12T21:18:11.574Z,101120.37
2023-05-12T21:20:40.352Z,101124.29
2023-05-12T21:23:11.711Z,101125.19
2023-05-12T21:25:40.549Z,101125.76
2023-05-12T21:28:09.380Z,101130.85
2023-05-12T21:30:38.615Z,101128.98
2023-05-12T21:33:07.196Z,101128.19
2023-05-12T21:35:36.292Z,101124.75
2023-05-12T21:38:06.892Z,101124.94
2023-05-12T21:40:35.110Z,101128.62
2023-05-12T21:43:03.766Z,101131.56
2023-05-12T21:45:33.003Z,101129.67
2023-05-12T21:48:01.805Z,101129.23
2023-05-12T21:50:29.953Z,101131.84
2023-05-12T21:52:59.031Z,101131.50
2023-05-12T21:55:27.914Z,101135.00
2023-05-12T21:57:57.106Z,101132.46
2023-05-12T22:00:26.702Z,101129.46
2023-05-12T22:02:55.678Z,101134.52
2023-05-12T22:05:24.690Z,101134.73
2023-05-12T22:07:53.396Z,101131.48
2023-05-12T22:10:22.163Z,101135.77
2023-05-12T22:12:51.062Z,101133.08
2023-05-12T22:15:19.920Z,101133.34
2023-05-12T22:17:50.656Z,101135.48
2023-05-12T22:20:19.691Z,101136.20
2023-05-12T22:22:48.819Z,101132.95
2023-05-12T22:25:17.578Z,101131.48
2023-05-12T22:27:46.652Z,101138.27
2023-05-12T22:30:15.596Z,101138.21
2023-05-12T22:32:44.830Z,101136.62
2023-05-12T22:35:13.665Z,101136.95
2023-05-12T22:37:42.356Z,101139.09
2023-05-12T22:40:10.536Z,101141.87
2023-05-12T22:42:39.482Z,101139.57
2023-05-12T22:45:09.116Z,101139.40
2023-05-12T22:47:38.221Z,101137.25
2023-05-12T22:50:07.581Z,101137.59
2023-05-12T22:52:36.639Z,101139.44
2023-05-12T22:55:05.688Z,101141.03
2023-05-12T22:57:34.541Z,101135.69
2023-05-12T23:00:04.374Z,101135.52
2023-05-12T23:02:32.976Z,101134.17
2023-05-12T23:05:01.992Z,101135.94
2023-05-12T23:07:31.410Z,101137.41
2023-05-12T23:10:00.321Z,101135.81
2023-05-12T23:12:29.156Z,101136.94
2023-05-12T23:14:58.326Z,101137.91
2023-05-12T23:17:27.562Z,101136.33
2023-05-12T23:19:57.058Z,101133.18
2023-05-12T23:22:25.192Z,101133.38
2023-05-12T23:24:55.719Z,101127.85
2023-05-12T23:27:25.414Z,101130.32
2023-05-12T23:29:54.778Z,101127.48
2023-05-12T23:32:24.361Z,101131.25
2023-05-12T23:34:53.350Z,101129.71
2023-05-12T23:37:22.583Z,101129.11
2023-05-12T23:39:51.386Z,101129.77
2023-05-12T23:42:20.222Z,101131.69
2023-05-12T23:44:49.000Z,101131.25
2023-05-12T23:47:18.258Z,101127.25
2023-05-12T23:49:47.425Z,101126.17
2023-05-12T23:52:16.357Z,101126.52
2023-05-12T23:54:45.336Z,101124.05
2023-05-12T23:57:14.322Z,101126.58
2023-05-12T23:59:43.112Z,101129.31
